Weymouth Hm Seatac — WEYPD — position and weather

sailwx.info

Track history (hours):
 
Tides and Currents Weather Stations Pressure Air Temp Water Temp Dewpoint Dewpoint Depression Visibility Wind Speed Wind Dir Waves Ship Positions

Weymouth Hm Seatac

Last reported at 2018-Jul-15 22:59 UTC. Time now 2018-Jul-21 17:39 UTC.
Position N 42°15' W 070°55'.

; draft 1 m.

Type: Law enforcement. MMSI: 338111358.

Date/timePositionNaut miles runAvg speedWind from/ knotsBaromVisibWave heightAir tempDewpointWater temp
2018-Jul-15 22:59N 42°15' W 070°55'1 2.1
2018-Jul-15 22:30N 42°15' W 070°57'1 1.7
2018-Jul-15 21:38N 42°15' W 070°59'1 4.6
2018-Jul-15 21:30N 42°15' W 070°58'2 4.4
2018-Jul-15 21:00N 42°15' W 070°55'0 0.9
2018-Jul-15 20:30N 42°16' W 070°55'1 2.8
2018-Jul-15 20:00N 42°14' W 070°56'1 1.1
2018-Jul-15 19:14N 42°15' W 070°56'0 1.4
2018-Jul-15 18:58N 42°15' W 070°55'1 2.2
2018-Jul-15 18:29N 42°15' W 070°57'0 0.4
2018-Jul-15 18:00N 42°15' W 070°57'1 2.2
2018-Jul-15 17:30N 42°16' W 070°56'1 0.0
2018-Jul-15 00:45N 42°15' W 070°56'0 0.0
2018-Jul-15 00:29N 42°15' W 070°56'0 0.5
2018-Jul-15 00:00N 42°15' W 070°55'2 3.1
2018-Jul-14 23:30N 42°15' W 070°57'1 1.0
2018-Jul-14 22:31N 42°15' W 070°59'0 4.9
2018-Jul-14 22:30N 42°15' W 070°59'4 7.3
2018-Jul-14 22:00N 42°18' W 070°55'2 4.3
2018-Jul-14 21:30N 42°16' W 070°56'2 4.4
2018-Jul-14 21:00N 42°14' W 070°58'1 1.1
2018-Jul-14 20:30N 42°15' W 070°58'0 0.8
2018-Jul-14 20:00N 42°15' W 070°58'2 4.9
2018-Jul-14 19:30N 42°16' W 070°55'1 1.2
2018-Jul-14 19:00N 42°15' W 070°56'1 1.8
2018-Jul-14 18:30N 42°16' W 070°56'1 1.3
2018-Jul-14 18:00N 42°16' W 070°56'1 1.9
2018-Jul-14 17:30N 42°16' W 070°55'1 1.1
2018-Jul-14 17:00N 42°15' W 070°56'  
2018-Jul-08 23:30N 42°15' W 070°56'1 2.5
2018-Jul-08 23:00N 42°16' W 070°56'1 0.9
2018-Jul-08 22:07N 42°16' W 070°55'1 4.7
2018-Jul-08 22:00N 42°15' W 070°55'1 0.9
2018-Jul-08 21:25N 42°16' W 070°55'0 0.3
2018-Jul-08 21:00N 42°16' W 070°55'0 0.1
2018-Jul-08 18:22N 42°16' W 070°55'1 2.7
2018-Jul-08 17:53N 42°14' W 070°56'1 2.4
2018-Jul-08 17:30N 42°15' W 070°55'2 3.3
2018-Jul-08 17:00N 42°15' W 070°57'1 2.6
2018-Jul-08 16:28N 42°16' W 070°56'0 0.0
2018-Jul-07 22:46N 42°16' W 070°56'0 0.4
2018-Jul-07 21:49N 42°16' W 070°55'0 0.1
2018-Jul-07 20:21N 42°16' W 070°55'  
Track history (hours):
 
Tides and Currents Weather Stations Pressure Air Temp Water Temp Dewpoint Dewpoint Depression Visibility Wind Speed Wind Dir Waves Ship Positions

Weymouth Hm Seatac

Last reported at 2018-Jul-15 22:59 UTC. Time now 2018-Jul-21 17:39 UTC.
Position N 42°15' W 070°55'.

; draft 1 m.

Type: Law enforcement. MMSI: 338111358.

Date/timePositionNaut miles runAvg speedWind from/ knotsBaromVisibWave heightAir tempDewpointWater temp
2018-Jul-15 22:59N 42°15' W 070°55'1 2.1
2018-Jul-15 22:30N 42°15' W 070°57'1 1.7
2018-Jul-15 21:38N 42°15' W 070°59'1 4.6
2018-Jul-15 21:30N 42°15' W 070°58'2 4.4
2018-Jul-15 21:00N 42°15' W 070°55'0 0.9
2018-Jul-15 20:30N 42°16' W 070°55'1 2.8
2018-Jul-15 20:00N 42°14' W 070°56'1 1.1
2018-Jul-15 19:14N 42°15' W 070°56'0 1.4
2018-Jul-15 18:58N 42°15' W 070°55'1 2.2
2018-Jul-15 18:29N 42°15' W 070°57'0 0.4
2018-Jul-15 18:00N 42°15' W 070°57'1 2.2
2018-Jul-15 17:30N 42°16' W 070°56'1 0.0
2018-Jul-15 00:45N 42°15' W 070°56'0 0.0
2018-Jul-15 00:29N 42°15' W 070°56'0 0.5
2018-Jul-15 00:00N 42°15' W 070°55'2 3.1
2018-Jul-14 23:30N 42°15' W 070°57'1 1.0
2018-Jul-14 22:31N 42°15' W 070°59'0 4.9
2018-Jul-14 22:30N 42°15' W 070°59'4 7.3
2018-Jul-14 22:00N 42°18' W 070°55'2 4.3
2018-Jul-14 21:30N 42°16' W 070°56'2 4.4
2018-Jul-14 21:00N 42°14' W 070°58'1 1.1
2018-Jul-14 20:30N 42°15' W 070°58'0 0.8
2018-Jul-14 20:00N 42°15' W 070°58'2 4.9
2018-Jul-14 19:30N 42°16' W 070°55'1 1.2
2018-Jul-14 19:00N 42°15' W 070°56'1 1.8
2018-Jul-14 18:30N 42°16' W 070°56'1 1.3
2018-Jul-14 18:00N 42°16' W 070°56'1 1.9
2018-Jul-14 17:30N 42°16' W 070°55'1 1.1
2018-Jul-14 17:00N 42°15' W 070°56'  
2018-Jul-08 23:30N 42°15' W 070°56'1 2.5
2018-Jul-08 23:00N 42°16' W 070°56'1 0.9
2018-Jul-08 22:07N 42°16' W 070°55'1 4.7
2018-Jul-08 22:00N 42°15' W 070°55'1 0.9
2018-Jul-08 21:25N 42°16' W 070°55'0 0.3
2018-Jul-08 21:00N 42°16' W 070°55'0 0.1
2018-Jul-08 18:22N 42°16' W 070°55'1 2.7
2018-Jul-08 17:53N 42°14' W 070°56'1 2.4
2018-Jul-08 17:30N 42°15' W 070°55'2 3.3
2018-Jul-08 17:00N 42°15' W 070°57'1 2.6
2018-Jul-08 16:28N 42°16' W 070°56'0 0.0
2018-Jul-07 22:46N 42°16' W 070°56'0 0.4
2018-Jul-07 21:49N 42°16' W 070°55'0 0.1
2018-Jul-07 20:21N 42°16' W 070°55'  

Dump ship's entire track history